createdAt,value
2018-06-04T00:00:00.350Z,71.50
2018-06-04T00:02:28.723Z,61.07
2018-06-04T00:04:57.131Z,56.40
2018-06-04T00:07:25.511Z,63.77
2018-06-04T00:09:54.082Z,71.10
2018-06-04T00:12:22.471Z,52.30
2018-06-04T00:14:50.965Z,62.17
2018-06-04T00:17:19.343Z,68.33
2018-06-04T00:19:47.748Z,78.43
2018-06-04T00:22:16.140Z,73.73
2018-06-04T00:24:44.544Z,62.27
2018-06-04T00:27:12.923Z,70.90
2018-06-04T00:29:41.322Z,71.03
2018-06-04T00:32:10.939Z,59.80
2018-06-04T00:34:39.343Z,60.50
2018-06-04T00:37:07.727Z,75.20
2018-06-04T00:39:36.137Z,75.67
2018-06-04T00:42:04.536Z,75.43
2018-06-04T00:44:32.941Z,67.30
2018-06-04T00:47:01.319Z,78.33
2018-06-04T00:49:29.749Z,72.23
2018-06-04T00:51:58.140Z,60.37
2018-06-04T00:54:26.527Z,77.93
2018-06-04T00:56:54.922Z,78.87
2018-06-04T00:59:23.331Z,71.73
2018-06-04T01:01:51.726Z,63.97
2018-06-04T01:04:29.320Z,73.13
2018-06-04T01:07:04.231Z,93.00
2018-06-04T01:09:32.608Z,74.00
2018-06-04T01:12:06.110Z,74.27
2018-06-04T01:14:34.487Z,65.63
2018-06-04T01:17:02.887Z,62.30
2018-06-04T01:19:31.268Z,75.80
2018-06-04T01:21:59.676Z,62.00
2018-06-04T01:24:28.058Z,82.13
2018-06-04T01:26:56.467Z,74.67
2018-06-04T01:29:24.854Z,60.80
2018-06-04T01:31:53.279Z,85.37
2018-06-04T01:34:21.653Z,75.37
2018-06-04T01:36:50.060Z,68.97
2018-06-04T01:39:18.438Z,70.60
2018-06-04T01:41:46.834Z,81.37
2018-06-04T01:44:15.211Z,81.07
2018-06-04T01:46:43.612Z,80.67
2018-06-04T01:49:11.992Z,71.73
2018-06-04T01:51:40.395Z,69.27
2018-06-04T01:54:08.778Z,80.40
2018-06-04T01:56:37.182Z,75.27
2018-06-04T01:59:05.583Z,82.30
2018-06-04T02:01:33.982Z,66.77
2018-06-04T02:04:02.366Z,83.60
2018-06-04T02:06:30.767Z,75.30
2018-06-04T02:08:59.147Z,85.73
2018-06-04T02:11:27.550Z,74.10
2018-06-04T02:13:55.918Z,83.43
2018-06-04T02:16:24.315Z,78.33
2018-06-04T02:18:52.695Z,74.07
2018-06-04T02:21:21.123Z,75.33
2018-06-04T02:23:49.517Z,80.43
2018-06-04T02:26:17.895Z,84.90
2018-06-04T02:28:46.299Z,80.23
2018-06-04T02:31:14.686Z,81.47
2018-06-04T02:33:43.087Z,80.30
2018-06-04T02:36:11.470Z,69.93
2018-06-04T02:38:39.880Z,77.37
2018-06-04T02:41:08.258Z,79.10
2018-06-04T02:43:36.661Z,73.13
2018-06-04T02:46:05.291Z,71.63
2018-06-04T02:48:33.691Z,93.73
2018-06-04T02:51:02.067Z,78.10
2018-06-04T02:53:30.467Z,74.17
2018-06-04T02:55:58.848Z,76.57
2018-06-04T02:58:27.270Z,82.30
2018-06-04T03:00:55.646Z,73.20
2018-06-04T03:03:24.052Z,75.50
2018-06-04T03:05:52.430Z,73.37
2018-06-04T03:08:20.835Z,72.70
2018-06-04T03:10:49.220Z,69.63
2018-06-04T03:13:17.618Z,77.63
2018-06-04T03:15:45.996Z,79.93
2018-06-04T03:18:14.399Z,88.17
2018-06-04T03:20:42.775Z,82.67
2018-06-04T03:23:11.175Z,75.33
2018-06-04T03:25:39.555Z,85.80
2018-06-04T03:28:07.958Z,68.97
2018-06-04T03:30:36.340Z,70.30
2018-06-04T03:33:04.750Z,73.87
2018-06-04T03:35:33.126Z,79.07
2018-06-04T03:38:01.515Z,70.53
2018-06-04T03:40:29.883Z,66.67
2018-06-04T03:42:58.274Z,73.40
2018-06-04T03:45:26.648Z,58.67
2018-06-04T03:47:55.060Z,63.13
2018-06-04T03:50:23.439Z,70.53
2018-06-04T03:52:51.819Z,79.93
2018-06-04T03:55:20.224Z,57.20
2018-06-04T03:57:48.627Z,57.27
2018-06-04T04:00:17.026Z,66.80
2018-06-04T04:02:45.403Z,52.10
2018-06-04T04:05:13.807Z,59.57
2018-06-04T04:07:42.179Z,61.07
2018-06-04T04:10:10.581Z,51.80
2018-06-04T04:12:38.963Z,48.97
2018-06-04T04:15:07.367Z,55.70
2018-06-04T04:17:35.763Z,48.20
2018-06-04T04:20:04.195Z,49.80
2018-06-04T04:22:32.571Z,54.90
2018-06-04T04:25:00.962Z,49.57
2018-06-04T04:27:29.394Z,44.70
2018-06-04T04:29:57.786Z,43.50
2018-06-04T04:32:26.275Z,54.10
2018-06-04T04:34:54.670Z,51.50
2018-06-04T04:37:23.047Z,45.80
2018-06-04T04:39:51.451Z,47.67
2018-06-04T04:42:19.826Z,42.63
2018-06-04T04:44:48.232Z,40.50
2018-06-04T04:47:16.607Z,43.53
2018-06-04T04:49:45.008Z,39.60
2018-06-04T04:52:13.385Z,38.90
2018-06-04T04:54:41.787Z,42.63
2018-06-04T04:57:10.171Z,42.00
2018-06-04T04:59:38.614Z,37.63
2018-06-04T05:02:07.004Z,38.30
2018-06-04T05:04:35.402Z,37.03
2018-06-04T05:07:03.779Z,35.60
2018-06-04T05:09:32.186Z,36.00
2018-06-04T05:12:00.567Z,35.87
2018-06-04T05:14:28.976Z,29.67
2018-06-04T05:16:57.358Z,33.13
2018-06-04T05:19:25.751Z,33.57
2018-06-04T05:21:54.151Z,38.57
2018-06-04T05:24:22.527Z,35.00
2018-06-04T05:26:50.927Z,30.17
2018-06-04T05:29:19.298Z,38.37
2018-06-04T05:31:47.708Z,39.43
2018-06-04T05:34:16.082Z,37.50
2018-06-04T05:36:44.495Z,34.73
2018-06-04T05:39:13.333Z,29.77
2018-06-04T05:41:41.732Z,30.67
2018-06-04T05:44:10.109Z,34.37
2018-06-04T05:46:38.551Z,36.33
2018-06-04T05:49:06.923Z,24.80
2018-06-04T05:51:35.322Z,23.37
2018-06-04T05:54:03.695Z,23.80
2018-06-04T05:56:32.103Z,23.17
2018-06-04T05:59:00.496Z,22.37
2018-06-04T06:01:28.904Z,21.43
2018-06-04T06:03:57.283Z,33.47
2018-06-04T06:06:25.774Z,23.20
2018-06-04T06:08:54.166Z,24.13
2018-06-04T06:11:22.564Z,25.77
2018-06-04T06:13:50.943Z,31.53
2018-06-04T06:16:19.339Z,20.57
2018-06-04T06:18:47.715Z,21.23
2018-06-04T06:21:16.111Z,25.10
2018-06-04T06:23:44.506Z,27.10
2018-06-04T06:26:12.907Z,26.33
2018-06-04T06:28:41.291Z,20.93
2018-06-04T06:31:09.691Z,29.10
2018-06-04T06:33:38.066Z,19.63
2018-06-04T06:36:06.462Z,27.17
2018-06-04T06:38:34.843Z,22.13
2018-06-04T06:41:03.244Z,24.60
2018-06-04T06:43:31.619Z,23.80
2018-06-04T06:46:00.014Z,22.63
2018-06-04T06:48:28.386Z,20.70
2018-06-04T06:50:56.787Z,23.40
2018-06-04T06:53:25.185Z,22.83
2018-06-04T06:55:53.667Z,26.30
2018-06-04T06:58:22.087Z,26.73
2018-06-04T07:00:50.608Z,24.90
2018-06-04T07:03:19.021Z,27.33
2018-06-04T07:05:47.486Z,24.77
2018-06-04T07:08:15.891Z,25.30
2018-06-04T07:10:44.266Z,25.00
2018-06-04T07:13:12.670Z,26.53
2018-06-04T07:15:41.055Z,27.00
2018-06-04T07:18:09.464Z,28.70
2018-06-04T07:20:37.843Z,22.47
2018-06-04T07:23:06.419Z,21.67
2018-06-04T07:25:34.845Z,22.50
2018-06-04T07:28:03.247Z,24.50
2018-06-04T07:30:31.631Z,22.50
2018-06-04T07:33:00.195Z,27.03
2018-06-04T07:35:28.582Z,23.57
2018-06-04T07:37:56.978Z,18.93
2018-06-04T07:40:25.356Z,20.77
2018-06-04T07:42:53.754Z,20.83
2018-06-04T07:45:22.134Z,19.43
2018-06-04T07:47:50.546Z,18.53
2018-06-04T07:50:18.935Z,19.17
2018-06-04T07:52:47.339Z,31.33
2018-06-04T07:55:15.720Z,21.73
2018-06-04T07:57:44.144Z,29.77
2018-06-04T08:00:12.515Z,31.13
2018-06-04T08:02:40.957Z,18.23
2018-06-04T08:05:09.316Z,17.30
2018-06-04T08:07:37.723Z,22.40
2018-06-04T08:10:06.343Z,22.87
2018-06-04T08:12:34.739Z,20.93
2018-06-04T08:15:03.158Z,17.97
2018-06-04T08:17:31.527Z,20.70
2018-06-04T08:19:59.936Z,21.20
2018-06-04T08:22:28.321Z,22.57
2018-06-04T08:24:56.727Z,22.10
2018-06-04T08:27:25.103Z,21.03
2018-06-04T08:29:53.512Z,23.00
2018-06-04T08:32:21.898Z,19.03
2018-06-04T08:34:50.343Z,18.53
2018-06-04T08:37:18.720Z,21.13
2018-06-04T08:39:47.119Z,19.40
2018-06-04T08:42:15.528Z,19.27
2018-06-04T08:44:43.924Z,22.17
2018-06-04T08:47:12.303Z,22.17
2018-06-04T08:49:40.698Z,22.13
2018-06-04T08:52:09.175Z,22.97
2018-06-04T08:54:37.568Z,25.23
2018-06-04T08:57:05.949Z,23.50
2018-06-04T08:59:34.372Z,23.57
2018-06-04T09:02:02.750Z,20.20
2018-06-04T09:04:31.155Z,26.63
2018-06-04T09:06:59.531Z,19.90
2018-06-04T09:09:27.946Z,23.17
2018-06-04T09:11:56.319Z,23.20
2018-06-04T09:14:24.727Z,33.03
2018-06-04T09:16:53.195Z,23.13
2018-06-04T09:19:21.594Z,23.87
2018-06-04T09:21:49.980Z,24.23
2018-06-04T09:24:18.379Z,19.17
2018-06-04T09:26:46.765Z,19.93
2018-06-04T09:29:15.162Z,30.37
2018-06-04T09:31:43.543Z,23.07
2018-06-04T09:34:11.963Z,24.63
2018-06-04T09:36:40.343Z,17.80
2018-06-04T09:39:08.758Z,23.40
2018-06-04T09:41:37.159Z,31.63
2018-06-04T09:44:05.540Z,24.87
2018-06-04T09:46:33.935Z,27.23
2018-06-04T09:49:02.317Z,22.17
2018-06-04T09:51:30.719Z,27.37
2018-06-04T09:53:59.114Z,25.20
2018-06-04T09:56:27.518Z,25.90
2018-06-04T09:58:55.916Z,19.27
2018-06-04T10:01:24.316Z,20.10
2018-06-04T10:03:52.705Z,19.80
2018-06-04T10:06:21.103Z,21.17
2018-06-04T10:08:49.482Z,17.90
2018-06-04T10:11:18.143Z,17.70
2018-06-04T10:13:46.519Z,16.00
2018-06-04T10:16:14.921Z,19.37
2018-06-04T10:18:43.299Z,16.47
2018-06-04T10:21:11.809Z,15.07
2018-06-04T10:23:40.349Z,22.63
2018-06-04T10:26:08.760Z,12.83
2018-06-04T10:28:37.253Z,12.07
2018-06-04T10:31:05.648Z,15.70
2018-06-04T10:33:34.036Z,15.30
2018-06-04T10:36:02.439Z,12.50
2018-06-04T10:38:30.819Z,17.10
2018-06-04T10:40:59.223Z,15.87
2018-06-04T10:43:27.609Z,15.13
2018-06-04T10:45:56.005Z,16.00
2018-06-04T10:48:24.378Z,24.90
2018-06-04T10:50:52.775Z,12.47
2018-06-04T10:53:21.147Z,14.80
2018-06-04T10:55:49.546Z,13.20
2018-06-04T10:58:17.948Z,13.33
2018-06-04T11:00:46.372Z,11.53
2018-06-04T11:03:14.760Z,12.50
2018-06-04T11:05:43.134Z,11.40
2018-06-04T11:08:11.534Z,13.03
2018-06-04T11:10:39.895Z,9.57
2018-06-04T11:13:08.291Z,13.10
2018-06-04T11:15:36.660Z,11.10
2018-06-04T11:18:05.059Z,11.30
2018-06-04T11:20:33.434Z,13.53
2018-06-04T11:23:01.839Z,11.50
2018-06-04T11:25:30.203Z,9.53
2018-06-04T11:27:58.642Z,17.40
2018-06-04T11:30:27.044Z,10.17
2018-06-04T11:32:55.443Z,12.83
2018-06-04T11:35:23.837Z,10.97
2018-06-04T11:37:52.258Z,10.83
2018-06-04T11:40:20.646Z,10.97
2018-06-04T11:42:49.046Z,11.93
2018-06-04T11:45:17.426Z,12.10
2018-06-04T11:47:45.834Z,12.37
2018-06-04T11:50:14.296Z,11.13
2018-06-04T11:52:42.711Z,12.50
2018-06-04T11:55:11.083Z,11.33
2018-06-04T11:57:39.512Z,10.40
2018-06-04T12:00:07.911Z,9.47
2018-06-04T12:02:36.278Z,12.30
2018-06-04T12:05:04.728Z,10.03
2018-06-04T12:07:33.124Z,9.93
2018-06-04T12:10:01.527Z,9.87
2018-06-04T12:12:29.983Z,10.53
2018-06-04T12:14:58.378Z,8.40
2018-06-04T12:17:26.797Z,12.77
2018-06-04T12:19:55.182Z,11.27
2018-06-04T12:22:23.574Z,10.43
2018-06-04T12:24:51.974Z,16.70
2018-06-04T12:27:20.344Z,13.57
2018-06-04T12:29:48.742Z,9.23
2018-06-04T12:32:17.106Z,14.33
2018-06-04T12:34:45.498Z,9.23
2018-06-04T12:37:13.871Z,8.57
2018-06-04T12:39:42.270Z,14.33
2018-06-04T12:42:10.750Z,13.77
2018-06-04T12:44:40.762Z,10.30
2018-06-04T12:47:09.135Z,10.90
2018-06-04T12:49:37.902Z,10.87
2018-06-04T12:52:06.268Z,12.00
2018-06-04T12:54:34.672Z,14.83
2018-06-04T12:57:03.046Z,10.77
2018-06-04T12:59:31.494Z,10.83
2018-06-04T13:01:59.901Z,9.67
2018-06-04T13:04:28.308Z,14.53
2018-06-04T13:06:56.795Z,16.60
2018-06-04T13:09:25.190Z,12.90
2018-06-04T13:11:53.655Z,13.93
2018-06-04T13:14:22.050Z,12.67
2018-06-04T13:16:50.436Z,20.40
2018-06-04T13:19:18.840Z,12.90
2018-06-04T13:21:47.238Z,18.77
2018-06-04T13:24:15.620Z,13.90
2018-06-04T13:26:44.077Z,16.43
2018-06-04T13:29:12.465Z,15.13
2018-06-04T13:31:40.864Z,15.00
2018-06-04T13:34:09.271Z,17.77
2018-06-04T13:36:37.669Z,15.70
2018-06-04T13:39:08.590Z,14.23
2018-06-04T13:41:37.244Z,13.50
2018-06-04T13:44:05.635Z,15.43
2018-06-04T13:46:34.030Z,15.27
2018-06-04T13:49:02.404Z,16.97
2018-06-04T13:51:30.806Z,18.83
2018-06-04T13:53:59.182Z,15.23
2018-06-04T13:56:27.578Z,15.80
2018-06-04T13:58:55.973Z,14.07
2018-06-04T14:01:24.370Z,14.17
2018-06-04T14:03:52.747Z,16.53
2018-06-04T14:06:21.148Z,14.20
2018-06-04T14:08:49.526Z,13.70
2018-06-04T14:11:17.947Z,15.90
2018-06-04T14:13:46.325Z,12.90
2018-06-04T14:16:14.726Z,11.87
2018-06-04T14:18:43.098Z,14.60
2018-06-04T14:21:11.578Z,13.70
2018-06-04T14:23:39.965Z,17.97
2018-06-04T14:26:08.360Z,13.47
2018-06-04T14:28:36.738Z,13.07
2018-06-04T14:31:05.154Z,13.37
2018-06-04T14:33:33.529Z,14.93
2018-06-04T14:36:01.963Z,13.33
2018-06-04T14:38:30.346Z,20.30
2018-06-04T14:40:58.756Z,13.03
2018-06-04T14:43:27.138Z,14.10
2018-06-04T14:45:55.566Z,13.07
2018-06-04T14:48:23.938Z,13.57
2018-06-04T14:50:52.330Z,16.83
2018-06-04T14:53:20.730Z,12.80
2018-06-04T14:55:49.102Z,12.83
2018-06-04T14:58:17.522Z,13.57
2018-06-04T15:00:45.906Z,10.83
2018-06-04T15:03:14.316Z,12.50
2018-06-04T15:05:42.694Z,15.40
2018-06-04T15:08:11.102Z,12.13
2018-06-04T15:10:39.479Z,11.50
2018-06-04T15:13:07.891Z,18.63
2018-06-04T15:15:36.433Z,12.53
2018-06-04T15:18:05.066Z,12.40
2018-06-04T15:20:33.458Z,10.93
2018-06-04T15:23:01.865Z,14.17
2018-06-04T15:25:30.245Z,12.33
2018-06-04T15:27:58.694Z,17.57
2018-06-04T15:30:27.082Z,11.87
2018-06-04T15:32:55.483Z,11.37
2018-06-04T15:35:23.882Z,16.77
2018-06-04T15:37:52.426Z,16.80
2018-06-04T15:40:20.794Z,13.60
2018-06-04T15:42:49.199Z,11.17
2018-06-04T15:45:17.585Z,12.67
2018-06-04T15:47:46.052Z,16.97
2018-06-04T15:50:14.536Z,13.70
2018-06-04T15:52:42.954Z,12.30
2018-06-04T15:55:11.334Z,12.10
2018-06-04T15:57:39.742Z,11.33
2018-06-04T16:00:08.164Z,13.87
2018-06-04T16:02:36.587Z,11.80
2018-06-04T16:05:04.990Z,11.90
2018-06-04T16:07:33.414Z,14.00
2018-06-04T16:10:01.849Z,13.20
2018-06-04T16:12:30.282Z,13.97
2018-06-04T16:14:58.683Z,10.87
2018-06-04T16:17:27.074Z,16.17
2018-06-04T16:19:55.474Z,12.30
2018-06-04T16:22:23.894Z,12.00
2018-06-04T16:24:52.307Z,11.90
2018-06-04T16:27:20.759Z,13.20
2018-06-04T16:29:49.157Z,15.13
2018-06-04T16:32:17.546Z,20.20
2018-06-04T16:34:45.959Z,12.70
2018-06-04T16:37:14.388Z,12.60
2018-06-04T16:39:42.770Z,13.43
2018-06-04T16:42:11.762Z,14.00
2018-06-04T16:44:40.217Z,13.60
2018-06-04T16:47:08.607Z,13.73
2018-06-04T16:49:37.051Z,12.90
2018-06-04T16:52:05.445Z,14.70
2018-06-04T16:54:33.848Z,17.70
2018-06-04T16:57:02.229Z,13.23
2018-06-04T16:59:30.744Z,13.37
2018-06-04T17:01:59.094Z,15.33
2018-06-04T17:04:27.489Z,15.90
2018-06-04T17:06:55.894Z,14.57
2018-06-04T17:09:24.333Z,14.63
2018-06-04T17:11:52.776Z,15.67
2018-06-04T17:14:21.179Z,13.57
2018-06-04T17:16:49.550Z,16.83
2018-06-04T17:19:17.954Z,19.67
2018-06-04T17:21:46.398Z,14.87
2018-06-04T17:24:14.806Z,14.17
2018-06-04T17:26:43.187Z,18.27
2018-06-04T17:29:11.636Z,12.30
2018-06-04T17:31:40.014Z,20.40
2018-06-04T17:34:08.426Z,11.73
2018-06-04T17:36:36.802Z,13.70
2018-06-04T17:39:07.701Z,13.40
2018-06-04T17:41:36.983Z,13.40
2018-06-04T17:44:05.426Z,12.87
2018-06-04T17:46:33.828Z,17.30
2018-06-04T17:49:02.194Z,11.50
2018-06-04T17:51:30.600Z,13.97
2018-06-04T17:53:58.983Z,14.40
2018-06-04T17:56:27.402Z,16.40
2018-06-04T17:58:55.797Z,16.50
2018-06-04T18:01:24.204Z,17.30
2018-06-04T18:03:52.579Z,17.33
2018-06-04T18:06:20.979Z,18.47
2018-06-04T18:08:49.362Z,15.57
2018-06-04T18:11:17.774Z,16.50
2018-06-04T18:13:46.154Z,16.97
2018-06-04T18:16:14.554Z,20.80
2018-06-04T18:18:42.935Z,21.10
2018-06-04T18:21:11.335Z,17.50
2018-06-04T18:23:39.711Z,16.83
2018-06-04T18:26:08.114Z,19.83
2018-06-04T18:28:36.521Z,17.83
2018-06-04T18:31:04.914Z,17.97
2018-06-04T18:33:33.447Z,23.73
2018-06-04T18:36:01.855Z,20.37
2018-06-04T18:38:30.230Z,18.80
2018-06-04T18:40:58.628Z,17.50
2018-06-04T18:43:27.011Z,19.97
2018-06-04T18:45:55.411Z,18.50
2018-06-04T18:48:23.789Z,20.40
2018-06-04T18:50:52.186Z,27.10
2018-06-04T18:53:20.558Z,22.00
2018-06-04T18:55:48.939Z,17.20
2018-06-04T18:58:17.390Z,20.43
2018-06-04T19:00:45.767Z,21.10
2018-06-04T19:03:14.172Z,23.63
2018-06-04T19:05:42.546Z,25.93
2018-06-04T19:08:10.944Z,19.63
2018-06-04T19:10:39.364Z,18.43
2018-06-04T19:13:07.847Z,16.70
2018-06-04T19:15:36.224Z,21.53
2018-06-04T19:18:04.626Z,20.67
2018-06-04T19:20:33.010Z,24.00
2018-06-04T19:23:01.406Z,23.27
2018-06-04T19:25:29.795Z,29.00
2018-06-04T19:27:58.194Z,23.73
2018-06-04T19:30:26.580Z,26.50
2018-06-04T19:32:54.997Z,20.00
2018-06-04T19:35:23.380Z,23.37
2018-06-04T19:37:51.773Z,24.70
2018-06-04T19:40:20.150Z,19.80
2018-06-04T19:42:48.548Z,21.20
2018-06-04T19:45:16.933Z,21.80
2018-06-04T19:47:45.331Z,28.93
2018-06-04T19:50:13.710Z,21.27
2018-06-04T19:52:42.110Z,21.47
2018-06-04T19:55:10.481Z,23.90
2018-06-04T19:57:38.879Z,23.73
2018-06-04T20:00:07.334Z,20.27
2018-06-04T20:02:35.798Z,18.90
2018-06-04T20:05:04.182Z,20.20
2018-06-04T20:07:32.582Z,21.07
2018-06-04T20:10:00.958Z,24.07
2018-06-04T20:12:29.374Z,23.50
2018-06-04T20:14:57.845Z,27.83
2018-06-04T20:17:26.245Z,22.53
2018-06-04T20:19:54.646Z,24.47
2018-06-04T20:22:23.114Z,25.47
2018-06-04T20:24:51.514Z,21.17
2018-06-04T20:27:19.890Z,23.43
2018-06-04T20:29:48.294Z,23.63
2018-06-04T20:32:16.670Z,25.30
2018-06-04T20:34:45.071Z,23.20
2018-06-04T20:37:13.453Z,25.50
2018-06-04T20:39:41.882Z,29.73
2018-06-04T20:42:10.258Z,26.93
2018-06-04T20:44:38.666Z,29.43
2018-06-04T20:47:07.055Z,26.23
2018-06-04T20:49:35.458Z,32.73
2018-06-04T20:52:03.832Z,27.50
2018-06-04T20:54:32.226Z,34.13
2018-06-04T20:57:00.618Z,31.07
2018-06-04T20:59:29.038Z,28.57
2018-06-04T21:01:57.470Z,29.47
2018-06-04T21:04:25.894Z,29.90
2018-06-04T21:06:54.277Z,37.23
2018-06-04T21:09:22.665Z,31.53
2018-06-04T21:11:51.034Z,30.33
2018-06-04T21:14:19.434Z,35.97
2018-06-04T21:16:47.806Z,43.70
2018-06-04T21:19:16.203Z,32.53
2018-06-04T21:21:44.578Z,36.83
2018-06-04T21:24:12.977Z,49.77
2018-06-04T21:26:41.357Z,33.90
2018-06-04T21:29:09.764Z,35.40
2018-06-04T21:31:38.131Z,31.27
2018-06-04T21:34:06.551Z,34.20
2018-06-04T21:36:34.923Z,34.40
2018-06-04T21:39:03.334Z,29.57
2018-06-04T21:41:31.734Z,29.17
2018-06-04T21:44:00.106Z,33.30
2018-06-04T21:46:28.498Z,29.60
2018-06-04T21:48:56.870Z,29.07
2018-06-04T21:51:25.263Z,28.90
2018-06-04T21:53:53.638Z,31.23
2018-06-04T21:56:22.034Z,30.33
2018-06-04T21:58:50.430Z,33.93
2018-06-04T22:01:18.826Z,37.03
2018-06-04T22:03:47.202Z,36.73
2018-06-04T22:06:15.598Z,36.27
2018-06-04T22:08:43.970Z,35.13
2018-06-04T22:11:12.361Z,37.37
2018-06-04T22:13:40.734Z,42.57
2018-06-04T22:16:09.131Z,37.83
2018-06-04T22:18:37.509Z,39.23
2018-06-04T22:21:05.903Z,28.50
2018-06-04T22:23:34.275Z,32.93
2018-06-04T22:26:02.671Z,32.80
2018-06-04T22:28:31.054Z,36.07
2018-06-04T22:30:59.452Z,35.33
2018-06-04T22:33:27.823Z,40.33
2018-06-04T22:35:56.229Z,36.87
2018-06-04T22:38:24.604Z,43.13
2018-06-04T22:40:53.006Z,43.13
2018-06-04T22:43:21.378Z,39.73
2018-06-04T22:45:49.769Z,34.87
2018-06-04T22:48:18.141Z,35.73
2018-06-04T22:50:46.539Z,33.67
2018-06-04T22:53:14.914Z,32.00
2018-06-04T22:55:43.311Z,37.97
2018-06-04T22:58:11.708Z,31.77
2018-06-04T23:00:40.079Z,35.20
2018-06-04T23:03:08.486Z,30.93
2018-06-04T23:05:36.883Z,30.30
2018-06-04T23:08:05.279Z,36.57
2018-06-04T23:10:33.662Z,38.83
2018-06-04T23:13:02.060Z,39.70
2018-06-04T23:15:30.430Z,48.43
2018-06-04T23:17:58.822Z,42.77
2018-06-04T23:20:27.196Z,44.27
2018-06-04T23:22:55.596Z,39.83
2018-06-04T23:25:23.966Z,39.17
2018-06-04T23:27:52.367Z,45.07
2018-06-04T23:30:20.743Z,55.80
2018-06-04T23:32:49.137Z,45.23
2018-06-04T23:35:17.510Z,42.97
2018-06-04T23:37:45.905Z,45.67
2018-06-04T23:40:14.292Z,43.03
2018-06-04T23:42:42.687Z,44.77
2018-06-04T23:45:11.067Z,43.03
2018-06-04T23:47:39.464Z,43.13
2018-06-04T23:50:07.834Z,41.53
2018-06-04T23:52:36.234Z,50.20
2018-06-04T23:55:04.606Z,51.73
2018-06-04T23:57:33.003Z,38.70
